Time;durP1;ratioP1;P1;durP2;ratioP2;P2;SDS_P1;SDS_P2;PMS_P1;PMS_P2;Temp;Humidity;BMP_temperature;BMP_pressure;BME280_temperature;BME280_humidity;BME280_pressure;Samples;Min_cycle;Max_cycle;Signal;HPM_P1;HPM_P2
2022/11/01 00:01:55;;;;;;;36.40;26.33;;;;;;;13.80;100.00;100901.34;5029817;28;20060;-64
2022/11/01 00:04:23;;;;;;;45.97;30.83;;;;;;;13.81;100.00;100903.88;5034080;28;20180;-65
2022/11/01 00:06:50;;;;;;;42.10;28.88;;;;;;;13.75;100.00;100904.31;5035376;28;20140;-64
2022/11/01 00:09:17;;;;;;;39.80;29.73;;;;;;;13.77;100.00;100886.50;5031593;28;20158;-63
2022/11/01 00:11:45;;;;;;;35.05;26.98;;;;;;;13.74;100.00;100885.91;5037830;28;20056;-63
2022/11/01 00:14:17;;;;;;;37.05;25.23;;;;;;;13.81;100.00;100885.34;5033425;28;20497;-63
2022/11/01 00:16:44;;;;;;;35.88;25.23;;;;;;;13.81;100.00;100877.41;5032901;28;20722;-63
2022/11/01 00:19:11;;;;;;;43.35;29.92;;;;;;;13.82;100.00;100872.97;5031291;28;20076;-63
2022/11/01 00:21:38;;;;;;;42.92;26.65;;;;;;;13.81;100.00;100863.34;5031610;28;20045;-63
2022/11/01 00:24:06;;;;;;;36.63;27.08;;;;;;;13.80;100.00;100854.56;5025876;28;20045;-64
2022/11/01 00:26:33;;;;;;;40.80;25.52;;;;;;;13.83;100.00;100835.00;5031436;28;20067;-64
2022/11/01 00:29:00;;;;;;;40.55;29.67;;;;;;;13.86;100.00;100825.03;5025875;28;20399;-63
2022/11/01 00:31:28;;;;;;;37.05;27.00;;;;;;;13.85;100.00;100818.03;5031703;28;20049;-63
2022/11/01 00:33:55;;;;;;;32.47;25.20;;;;;;;13.85;100.00;100814.56;5034898;28;20049;-63
2022/11/01 00:36:22;;;;;;;39.40;28.73;;;;;;;13.85;100.00;100831.28;5035415;28;20055;-64
2022/11/01 00:38:50;;;;;;;42.33;29.33;;;;;;;13.82;100.00;100865.88;5034551;28;20052;-64
2022/11/01 00:41:19;;;;;;;42.65;27.08;;;;;;;13.81;100.00;100855.41;5030942;28;20067;-64
2022/11/01 00:43:47;;;;;;;36.75;27.92;;;;;;;13.80;100.00;100833.38;5039715;28;20060;-63
2022/11/01 00:46:15;;;;;;;42.92;29.98;;;;;;;13.84;100.00;100839.31;5030305;28;20102;-64
2022/11/01 00:48:42;;;;;;;43.22;26.65;;;;;;;13.77;100.00;100849.47;5044434;28;20071;-64
2022/11/01 00:51:09;;;;;;;36.90;28.30;;;;;;;13.80;100.00;100872.25;5037511;28;20128;-63
2022/11/01 00:53:36;;;;;;;37.35;24.23;;;;;;;13.81;100.00;100847.47;5030869;28;20534;-64
2022/11/01 00:56:05;;;;;;;40.35;27.05;;;;;;;13.83;100.00;100835.00;5038564;28;20056;-65
2022/11/01 00:58:33;;;;;;;37.70;25.88;;;;;;;13.84;100.00;100849.91;5042588;28;20037;-64
2022/11/01 01:01:00;;;;;;;35.38;26.45;;;;;;;13.87;100.00;100850.56;5035604;28;20057;-65
2022/11/01 01:03:27;;;;;;;30.83;23.65;;;;;;;13.91;100.00;100838.81;5046885;28;20055;-64
2022/11/01 01:05:54;;;;;;;31.13;22.40;;;;;;;13.93;100.00;100836.88;5044147;28;20085;-64
2022/11/01 01:08:22;;;;;;;39.08;25.40;;;;;;;13.95;100.00;100834.13;5028738;28;20150;-65
2022/11/01 01:10:49;;;;;;;36.97;25.92;;;;;;;13.91;100.00;100830.00;5037441;28;20103;-65
2022/11/01 01:13:17;;;;;;;35.13;26.27;;;;;;;13.93;100.00;100828.09;5031074;28;20060;-64
2022/11/01 01:15:44;;;;;;;38.65;27.77;;;;;;;13.92;100.00;100816.66;5037683;28;20053;-63
2022/11/01 01:18:11;;;;;;;30.80;24.20;;;;;;;13.90;100.00;100809.78;5032967;28;20076;-63
2022/11/01 01:20:39;;;;;;;32.72;25.10;;;;;;;13.88;100.00;100801.13;5039239;28;20377;-64
2022/11/01 01:23:06;;;;;;;35.33;24.95;;;;;;;13.87;100.00;100786.19;5037092;28;20045;-64
2022/11/01 01:25:33;;;;;;;28.25;23.15;;;;;;;13.86;100.00;100787.13;5039729;28;20061;-64
2022/11/01 01:28:01;;;;;;;36.00;24.17;;;;;;;13.85;100.00;100791.56;5031208;28;20056;-65
2022/11/01 01:30:28;;;;;;;38.60;28.13;;;;;;;13.82;100.00;100788.28;5031316;28;20087;-65
2022/11/01 01:32:55;;;;;;;35.35;25.45;;;;;;;13.80;100.00;100780.47;5039172;28;20067;-63
2022/11/01 01:35:23;;;;;;;34.22;26.35;;;;;;;13.81;100.00;100763.63;5040087;28;20067;-64
2022/11/01 01:37:50;;;;;;;39.72;27.52;;;;;;;13.86;100.00;100747.44;5031628;28;20059;-63
2022/11/01 01:40:17;;;;;;;37.95;26.95;;;;;;;13.80;100.00;100750.53;5051142;28;20047;-65
2022/11/01 01:42:46;;;;;;;37.35;27.88;;;;;;;13.73;100.00;100770.41;5037369;28;20049;-63
2022/11/01 01:45:28;;;;;;;33.28;24.17;;;;;;;13.67;100.00;100792.84;5029627;28;20060;-61
2022/11/01 01:48:01;;;;;;;43.55;27.90;;;;;;;13.65;100.00;100814.13;5038846;28;20431;-63
2022/11/01 01:50:45;;;;;;;38.60;28.50;;;;;;;13.62;100.00;100809.06;5039855;28;20045;-63
2022/11/01 01:53:20;;;;;;;36.33;24.02;;;;;;;13.56;100.00;100804.19;5041472;28;20045;-64
2022/11/01 01:55:59;;;;;;;33.72;23.33;;;;;;;13.59;100.00;100797.81;5028155;28;20383;-64
2022/11/01 01:58:30;;;;;;;37.40;26.33;;;;;;;13.59;100.00;100798.66;5038708;28;20056;-64
2022/11/01 02:00:57;;;;;;;34.00;24.58;;;;;;;13.56;100.00;100801.53;5039665;28;20046;-64
2022/11/01 02:03:28;;;;;;;29.10;22.67;;;;;;;13.56;100.00;100792.75;5040123;28;20067;-64
2022/11/01 02:05:59;;;;;;;32.65;23.15;;;;;;;13.56;100.00;100787.47;5035240;28;20046;-64
2022/11/01 02:08:27;;;;;;;31.38;20.92;;;;;;;13.57;100.00;100795.28;5032793;28;20533;-65
2022/11/01 02:10:57;;;;;;;31.15;21.23;;;;;;;13.60;100.00;100776.56;5041493;28;20060;-64
2022/11/01 02:13:24;;;;;;;30.00;22.08;;;;;;;13.58;100.00;100781.09;5025883;28;20057;-64
2022/11/01 02:16:12;;;;;;;32.97;24.17;;;;;;;13.54;100.00;100765.56;5037376;28;20044;-64
2022/11/01 02:18:55;;;;;;;31.33;23.00;;;;;;;13.50;100.00;100759.63;5030934;28;20121;-64
2022/11/01 02:21:45;;;;;;;30.95;23.42;;;;;;;13.48;100.00;100750.13;5034447;28;20358;-64
2022/11/01 02:24:48;;;;;;;27.55;20.35;;;;;;;13.49;100.00;100743.88;5032642;28;20071;-64
2022/11/01 02:27:23;;;;;;;31.63;21.38;;;;;;;13.54;100.00;100731.16;5035031;28;20045;-64
2022/11/01 02:30:04;;;;;;;35.88;21.50;;;;;;;13.56;100.00;100730.13;5034453;28;20057;-64
2022/11/01 02:33:01;;;;;;;36.53;23.83;;;;;;;13.52;100.00;100720.72;5031252;28;20072;-63
2022/11/01 02:35:42;;;;;;;35.17;24.83;;;;;;;13.46;100.00;100720.28;5031470;28;20489;-64
2022/11/01 02:38:18;;;;;;;38.17;25.23;;;;;;;13.39;100.00;100725.16;5032610;28;20121;-64
2022/11/01 02:40:47;;;;;;;;;;;;;;;13.34;100.00;100722.84;5025685;28;20043;-64
2022/11/01 02:43:18;;;;;;;29.48;23.60;;;;;;;13.31;100.00;100719.53;5033117;28;19928;-64
2022/11/01 02:45:48;;;;;;;31.33;22.15;;;;;;;13.33;100.00;100717.66;5027518;28;20141;-63
2022/11/01 02:48:20;;;;;;;33.58;23.02;;;;;;;13.35;100.00;100719.22;5039794;28;20045;-63
2022/11/01 02:50:54;;;;;;;36.35;23.98;;;;;;;13.35;100.00;100716.59;5028555;28;20056;-64
2022/11/01 02:53:21;;;;;;;30.63;24.98;;;;;;;13.39;100.00;100707.50;5031725;28;20153;-62
2022/11/01 02:55:52;;;;;;;35.28;23.58;;;;;;;13.40;100.00;100698.59;5037547;28;20383;-64
2022/11/01 02:58:24;;;;;;;31.65;24.55;;;;;;;13.34;100.00;100693.75;5026983;28;20054;-64
2022/11/01 03:00:51;;;;;;;41.60;27.20;;;;;;;13.31;100.00;100701.03;5037270;28;20132;-64
2022/11/01 03:03:19;;;;;;;34.33;24.33;;;;;;;13.30;100.00;100699.34;5037173;28;20151;-64
2022/11/01 03:05:59;;;;;;;32.50;23.08;;;;;;;13.27;100.00;100702.19;5036738;28;20132;-65
2022/11/01 03:08:31;;;;;;;30.60;22.13;;;;;;;13.30;100.00;100697.56;5026736;28;20053;-65
2022/11/01 03:11:18;;;;;;;34.42;23.65;;;;;;;13.31;100.00;100701.03;5033969;28;20049;-64
2022/11/01 03:13:57;;;;;;;31.45;22.15;;;;;;;13.28;100.00;100710.00;5023828;28;20053;-65
2022/11/01 03:16:31;;;;;;;31.75;22.50;;;;;;;13.31;100.00;100712.44;5036767;28;20060;-65
2022/11/01 03:19:18;;;;;;;28.65;20.95;;;;;;;13.35;100.00;100706.00;5031437;28;20107;-65
2022/11/01 03:21:59;;;;;;;31.98;22.20;;;;;;;13.35;100.00;100711.28;5039721;28;20416;-64
2022/11/01 03:24:33;;;;;;;30.95;21.85;;;;;;;13.36;100.00;100701.56;5035043;28;20049;-65
2022/11/01 03:27:08;;;;;;;31.58;21.05;;;;;;;13.37;100.00;100705.88;5030525;28;20079;-64
2022/11/01 03:29:36;;;;;;;33.30;20.92;;;;;;;13.37;100.00;100698.84;5035023;28;20046;-65
2022/11/01 03:32:04;;;;;;;27.25;20.90;;;;;;;13.40;100.00;100710.97;5035086;28;20549;-64
2022/11/01 03:34:34;;;;;;;35.92;22.85;;;;;;;13.40;100.00;100719.75;5043904;28;20057;-64
2022/11/01 03:37:04;;;;;;;30.45;23.05;;;;;;;13.38;100.00;100719.03;5035794;28;20125;-64
2022/11/01 03:39:42;;;;;;;33.67;23.75;;;;;;;13.36;100.00;100725.34;5041637;28;20136;-64
2022/11/01 03:42:13;;;;;;;26.83;21.15;;;;;;;13.35;100.00;100727.16;5040205;28;20499;-64
2022/11/01 03:44:43;;;;;;;30.58;21.75;;;;;;;13.35;100.00;100711.28;5036058;28;20065;-64
2022/11/01 03:47:10;;;;;;;28.50;19.85;;;;;;;13.35;100.00;100705.16;5032015;28;20132;-64
2022/11/01 03:49:38;;;;;;;34.03;23.05;;;;;;;13.32;100.00;100706.22;5039636;28;20046;-65
2022/11/01 03:52:05;;;;;;;31.55;21.70;;;;;;;13.30;100.00;100712.56;5037354;28;20121;-65
2022/11/01 03:54:32;;;;;;;27.42;19.73;;;;;;;13.29;100.00;100705.59;5044019;28;20140;-65
2022/11/01 03:56:59;;;;;;;31.40;22.02;;;;;;;13.31;100.00;100701.03;5039523;28;20049;-64
2022/11/01 03:59:26;;;;;;;30.73;22.17;;;;;;;13.29;100.00;100698.50;5047957;28;20140;-64
2022/11/01 04:01:53;;;;;;;31.00;21.92;;;;;;;13.18;100.00;100704.47;5034326;28;20045;-65
2022/11/01 04:04:21;;;;;;;27.25;20.58;;;;;;;13.16;100.00;100695.81;5041416;28;20067;-65
2022/11/01 04:06:49;;;;;;;25.30;19.65;;;;;;;13.19;100.00;100700.03;5034952;28;20056;-64
2022/11/01 04:09:16;;;;;;;31.52;24.27;;;;;;;13.17;100.00;100697.50;5027794;28;20057;-63
2022/11/01 04:11:43;;;;;;;28.63;21.05;;;;;;;13.17;100.00;100694.88;5032426;28;20057;-63
2022/11/01 04:22:28;;;;;;;30.88;20.77;;;;;;;13.18;100.00;100685.13;5031463;28;20613;-63
2022/11/01 04:24:55;;;;;;;29.67;20.25;;;;;;;13.13;100.00;100690.75;5032749;28;20136;-62
2022/11/01 04:27:22;;;;;;;28.60;21.13;;;;;;;13.13;100.00;100693.38;5034281;28;20060;-64
2022/11/01 04:29:49;;;;;;;30.10;21.38;;;;;;;13.12;100.00;100691.69;5039339;28;20160;-64
2022/11/01 04:32:16;;;;;;;34.63;20.88;;;;;;;13.09;100.00;100704.28;5035361;28;20136;-64
2022/11/01 04:34:43;;;;;;;35.17;21.63;;;;;;;13.09;100.00;100717.47;5033917;28;20045;-64
2022/11/01 04:37:11;;;;;;;32.75;22.65;;;;;;;13.12;100.00;100709.34;5036091;28;20598;-63
2022/11/01 04:39:38;;;;;;;33.47;22.88;;;;;;;13.13;100.00;100709.25;5038601;28;20055;-64
2022/11/01 04:42:05;;;;;;;35.45;22.80;;;;;;;13.13;100.00;100706.59;5033112;28;20055;-64
2022/11/01 04:44:32;;;;;;;31.83;22.63;;;;;;;13.11;100.00;100691.81;5044769;28;20053;-64
2022/11/01 04:46:59;;;;;;;30.05;22.58;;;;;;;13.09;100.00;100689.25;5037965;28;20054;-64
2022/11/01 04:49:26;;;;;;;39.25;21.98;;;;;;;13.08;100.00;100687.56;5032609;28;20050;-64
2022/11/01 04:51:53;;;;;;;36.42;24.98;;;;;;;13.10;100.00;100690.97;5034993;28;20051;-64
2022/11/01 04:54:21;;;;;;;40.97;23.73;;;;;;;13.09;100.00;100698.97;5040462;28;20079;-61
2022/11/01 04:56:48;;;;;;;33.90;22.15;;;;;;;13.06;100.00;100688.66;5028288;28;20042;-63
2022/11/01 04:59:15;;;;;;;34.55;24.20;;;;;;;13.03;100.00;100689.69;5035142;28;20747;-63
2022/11/01 05:01:43;;;;;;;34.05;23.50;;;;;;;13.04;100.00;100688.72;5036053;28;20055;-62
2022/11/01 05:04:11;;;;;;;32.83;23.13;;;;;;;13.04;100.00;100674.66;5037613;28;20045;-64
2022/11/01 05:06:38;;;;;;;28.85;21.52;;;;;;;13.02;100.00;100679.22;5033829;28;20153;-64
2022/11/01 05:09:05;;;;;;;35.42;25.02;;;;;;;13.04;100.00;100669.38;5040026;28;20053;-63
2022/11/01 05:11:32;;;;;;;29.58;22.10;;;;;;;12.98;100.00;100670.66;5038464;28;20055;-64
2022/11/01 05:13:59;;;;;;;38.75;23.45;;;;;;;12.96;100.00;100669.06;5036151;28;20424;-64
2022/11/01 05:16:26;;;;;;;29.00;23.27;;;;;;;12.93;100.00;100673.63;5037161;28;20139;-64
2022/11/01 05:18:53;;;;;;;45.05;23.63;;;;;;;12.95;100.00;100662.94;5035406;28;20049;-63
2022/11/01 05:21:21;;;;;;;36.05;23.15;;;;;;;12.94;100.00;100663.88;5038896;28;20064;-63
2022/11/01 05:23:48;;;;;;;36.28;24.00;;;;;;;12.90;100.00;100660.59;5030817;28;20067;-64
2022/11/01 05:26:15;;;;;;;39.58;23.92;;;;;;;12.88;100.00;100664.31;5040463;28;20052;-64
2022/11/01 05:28:42;;;;;;;36.15;24.60;;;;;;;12.87;100.00;100668.72;5034797;28;20049;-63
2022/11/01 05:31:09;;;;;;;30.38;22.58;;;;;;;12.85;100.00;100669.78;5032133;28;20433;-63
2022/11/01 05:33:36;;;;;;;35.60;23.65;;;;;;;12.82;100.00;100648.84;5038444;28;20054;-64
2022/11/01 05:36:04;;;;;;;30.05;24.02;;;;;;;12.79;100.00;100636.72;5045341;28;20081;-64
2022/11/01 05:38:31;;;;;;;40.47;24.27;;;;;;;12.79;100.00;100643.78;5042718;28;20059;-64
2022/11/01 05:41:01;;;;;;;36.88;24.95;;;;;;;12.79;100.00;100670.19;5038550;28;20059;-64
2022/11/01 05:43:28;;;;;;;37.03;23.80;;;;;;;12.77;100.00;100651.81;5033174;28;20063;-65
2022/11/01 05:45:55;;;;;;;35.58;23.05;;;;;;;12.72;100.00;100655.72;5037425;28;20650;-65
2022/11/01 05:48:22;;;;;;;36.95;24.85;;;;;;;12.70;100.00;100665.53;5039181;28;20554;-62
2022/11/01 05:50:49;;;;;;;36.67;26.42;;;;;;;12.67;100.00;100662.16;5040662;28;20134;-64
2022/11/01 05:53:17;;;;;;;33.75;24.67;;;;;;;12.68;100.00;100679.69;5037033;28;20129;-65
2022/11/01 05:55:44;;;;;;;30.17;22.90;;;;;;;12.66;100.00;100659.63;5042470;28;20054;-64
2022/11/01 05:58:11;;;;;;;34.88;25.75;;;;;;;12.66;100.00;100657.00;5040629;28;20564;-65
2022/11/01 06:00:38;;;;;;;34.47;25.33;;;;;;;12.62;100.00;100653.69;5037787;28;20447;-65
2022/11/01 06:03:05;;;;;;;37.17;24.05;;;;;;;12.61;100.00;100654.66;5038762;28;20051;-64
2022/11/01 06:05:33;;;;;;;36.08;24.50;;;;;;;12.57;100.00;100661.09;5036114;28;20063;-65
2022/11/01 06:08:01;;;;;;;33.65;23.65;;;;;;;12.55;100.00;100676.16;5027345;28;20067;-64
2022/11/01 06:10:28;;;;;;;34.75;25.10;;;;;;;12.53;100.00;100670.16;5040407;28;20055;-64
2022/11/01 06:12:55;;;;;;;33.95;24.88;;;;;;;12.51;100.00;100677.31;5037863;28;20129;-65
2022/11/01 06:15:22;;;;;;;34.28;25.60;;;;;;;12.47;100.00;100678.47;5042945;28;20053;-65
2022/11/01 06:17:59;;;;;;;38.13;26.63;;;;;;;12.42;100.00;100678.75;5033967;28;20047;-65
2022/11/01 06:20:31;;;;;;;35.78;26.13;;;;;;;12.42;100.00;100677.91;5044131;28;20059;-65
2022/11/01 06:22:58;;;;;;;37.95;26.58;;;;;;;12.41;100.00;100666.53;5037338;28;20053;-65
2022/11/01 06:25:26;;;;;;;41.30;25.73;;;;;;;12.38;100.00;100652.66;5043289;28;20064;-63
2022/11/01 06:27:53;;;;;;;30.73;23.77;;;;;;;12.36;100.00;100660.69;5035141;28;20148;-64
2022/11/01 06:30:20;;;;;;;31.70;24.13;;;;;;;12.36;100.00;100665.97;5041620;28;20053;-64
2022/11/01 06:32:47;;;;;;;43.03;25.23;;;;;;;12.35;100.00;100660.81;5034922;28;20509;-64
2022/11/01 06:35:14;;;;;;;36.17;25.55;;;;;;;12.36;100.00;100651.94;5040322;28;20050;-65
2022/11/01 06:37:42;;;;;;;43.72;25.40;;;;;;;12.36;100.00;100642.22;5042859;28;20520;-65
2022/11/01 06:40:10;;;;;;;35.88;25.48;;;;;;;12.38;100.00;100658.81;5042899;28;20056;-64
2022/11/01 06:42:37;;;;;;;34.88;25.17;;;;;;;12.40;100.00;100669.28;5039183;28;20068;-65
2022/11/01 06:45:11;;;;;;;40.15;25.90;;;;;;;12.41;100.00;100666.53;5034669;28;20429;-63
2022/11/01 06:47:38;;;;;;;43.45;26.35;;;;;;;12.43;100.00;100677.00;5042932;28;20060;-64
2022/11/01 06:50:05;;;;;;;36.53;23.77;;;;;;;12.40;100.00;100683.31;5042035;28;20045;-64
2022/11/01 06:52:33;;;;;;;46.28;25.90;;;;;;;12.42;100.00;100686.69;5029388;28;20065;-64
2022/11/01 06:55:00;;;;;;;37.47;24.92;;;;;;;12.41;100.00;100681.53;5037653;28;20044;-63
2022/11/01 06:57:27;;;;;;;35.47;23.67;;;;;;;12.41;100.00;100677.09;5029519;28;20152;-64
2022/11/01 06:59:54;;;;;;;39.22;25.38;;;;;;;12.42;100.00;100675.28;5038098;28;20505;-64
2022/11/01 07:02:21;;;;;;;40.30;23.63;;;;;;;12.45;100.00;100680.38;5037645;28;20053;-64
2022/11/01 07:04:55;;;;;;;39.08;25.90;;;;;;;12.48;100.00;100680.19;5036773;28;20061;-63
2022/11/01 07:07:23;;;;;;;38.33;25.38;;;;;;;12.47;100.00;100675.81;5026445;28;20683;-62
2022/11/01 07:09:50;;;;;;;36.15;23.83;;;;;;;12.46;100.00;100673.28;5036638;28;20533;-64
2022/11/01 07:12:17;;;;;;;35.83;25.58;;;;;;;12.49;100.00;100684.50;5035166;28;20134;-63
2022/11/01 07:14:44;;;;;;;43.35;25.63;;;;;;;12.49;100.00;100689.78;5035416;28;20544;-63
2022/11/01 07:17:11;;;;;;;38.45;24.92;;;;;;;12.49;100.00;100705.63;5037496;28;20539;-65
2022/11/01 07:19:38;;;;;;;38.22;24.67;;;;;;;12.52;100.00;100704.56;5037794;28;20164;-64
2022/11/01 07:22:07;;;;;;;37.10;24.10;;;;;;;12.52;100.00;100692.25;5029546;28;20651;-64
2022/11/01 07:24:34;;;;;;;39.25;25.20;;;;;;;12.55;100.00;100697.28;5030781;28;20050;-64
2022/11/01 07:27:01;;;;;;;38.67;24.30;;;;;;;12.55;100.00;100697.28;5038397;28;20048;-64
2022/11/01 07:29:28;;;;;;;37.25;24.85;;;;;;;12.58;100.00;100698.91;5043694;28;20088;-64
2022/11/01 07:31:56;;;;;;;37.58;23.98;;;;;;;12.60;100.00;100692.56;5039228;28;20040;-64
2022/11/01 07:34:23;;;;;;;33.92;23.77;;;;;;;12.61;100.00;100699.56;5027448;28;20140;-64
2022/11/01 07:36:52;;;;;;;39.58;24.63;;;;;;;12.63;100.00;100712.66;5035714;28;20056;-64
2022/11/01 07:39:20;;;;;;;40.25;23.67;;;;;;;12.66;100.00;100721.22;5033558;28;20085;-63
2022/11/01 07:41:50;;;;;;;41.00;24.42;;;;;;;12.70;100.00;100710.44;5039233;28;20045;-64
2022/11/01 07:44:17;;;;;;;37.42;23.50;;;;;;;12.68;100.00;100735.16;5032219;28;20057;-64
2022/11/01 07:46:44;;;;;;;42.40;24.75;;;;;;;12.72;100.00;100734.97;5023067;28;20556;-64
2022/11/01 07:49:14;;;;;;;39.38;24.30;;;;;;;12.73;100.00;100744.56;5036323;28;20502;-63
2022/11/01 07:51:41;;;;;;;30.98;22.40;;;;;;;12.70;100.00;100734.19;5036159;28;20037;-64
2022/11/01 07:54:09;;;;;;;36.75;23.15;;;;;;;12.71;100.00;100735.91;5038134;28;20380;-64
2022/11/01 07:56:36;;;;;;;36.95;22.55;;;;;;;12.73;100.00;100734.84;5040789;28;20132;-64
2022/11/01 07:59:03;;;;;;;28.70;22.92;;;;;;;12.79;100.00;100744.16;5039086;28;20125;-64
2022/11/01 08:01:30;;;;;;;39.53;23.20;;;;;;;12.82;100.00;100746.59;5029252;28;20050;-64
2022/11/01 08:03:58;;;;;;;28.73;22.92;;;;;;;12.84;100.00;100755.28;5038222;28;20072;-64
2022/11/01 08:06:25;;;;;;;37.70;24.40;;;;;;;12.84;100.00;100765.88;5035820;28;20132;-63
2022/11/01 08:08:52;;;;;;;34.40;22.13;;;;;;;12.74;100.00;100752.38;5027884;28;20053;-65
2022/11/01 08:11:19;;;;;;;29.67;20.70;;;;;;;12.75;100.00;100777.88;5028424;28;20060;-65
2022/11/01 08:13:46;;;;;;;34.03;23.08;;;;;;;12.80;100.00;100769.66;5022324;28;20045;-64
2022/11/01 08:16:16;;;;;;;35.67;22.70;;;;;;;12.83;100.00;100774.72;5024188;28;20452;-65
2022/11/01 08:18:44;;;;;;;33.70;22.33;;;;;;;12.87;100.00;100770.91;5041077;28;20065;-66
2022/11/01 08:21:17;;;;;;;35.40;21.75;;;;;;;12.96;100.00;100758.91;5038011;28;20053;-64
2022/11/01 08:23:44;;;;;;;31.65;21.73;;;;;;;12.96;100.00;100753.63;5043770;28;20077;-64
2022/11/01 08:26:13;;;;;;;30.25;19.73;;;;;;;12.99;100.00;100751.63;5038193;28;20084;-65
2022/11/01 08:28:41;;;;;;;31.33;18.98;;;;;;;13.07;100.00;100762.53;5029532;28;20057;-66
2022/11/01 08:31:09;;;;;;;32.53;21.80;;;;;;;13.06;100.00;100760.84;5040820;28;20045;-64
2022/11/01 08:33:36;;;;;;;26.38;19.60;;;;;;;13.16;100.00;100764.56;5042653;28;20045;-64
2022/11/01 08:36:03;;;;;;;33.75;21.33;;;;;;;13.19;100.00;100752.91;5041507;28;20055;-53
2022/11/01 08:38:30;;;;;;;32.58;21.05;;;;;;;13.26;100.00;100751.59;5037948;28;20053;-52
2022/11/01 08:40:59;;;;;;;24.52;18.92;;;;;;;13.32;100.00;100753.81;5042307;28;20055;-52
2022/11/01 08:43:26;;;;;;;32.38;19.63;;;;;;;13.39;100.00;100756.88;5037415;28;20902;-52
2022/11/01 08:45:53;;;;;;;32.95;19.20;;;;;;;13.33;100.00;100771.38;5034986;28;20050;-54
2022/11/01 08:48:20;;;;;;;35.33;22.67;;;;;;;13.36;100.00;100760.56;5036021;28;20059;-55
2022/11/01 08:50:48;;;;;;;24.63;19.35;;;;;;;13.43;100.00;100748.63;5030844;28;20049;-51
2022/11/01 08:53:15;;;;;;;28.13;17.98;;;;;;;13.52;100.00;100751.59;5035339;28;20132;-52
2022/11/01 08:55:42;;;;;;;26.27;17.40;;;;;;;13.57;100.00;100752.97;5037299;28;20052;-50
2022/11/01 08:58:10;;;;;;;24.63;17.58;;;;;;;13.59;100.00;100748.41;5042436;28;20080;-54
2022/11/01 09:00:37;;;;;;;25.70;15.95;;;;;;;13.65;100.00;100742.72;5045971;28;20443;-53
2022/11/01 09:03:04;;;;;;;29.58;18.45;;;;;;;13.74;100.00;100737.72;5043559;28;20552;-50
2022/11/01 09:05:31;;;;;;;22.88;16.23;;;;;;;13.82;100.00;100741.50;5033966;28;20060;-51
2022/11/01 09:07:59;;;;;;;29.73;16.95;;;;;;;13.90;100.00;100756.84;5032282;28;20051;-53
2022/11/01 09:10:29;;;;;;;25.83;16.15;;;;;;;13.92;100.00;100757.59;5026949;28;20052;-51
2022/11/01 09:12:57;;;;;;;22.40;16.55;;;;;;;13.96;100.00;100761.72;5031589;28;20132;-50
2022/11/01 09:15:24;;;;;;;24.67;16.85;;;;;;;14.03;100.00;100760.31;5028843;28;20128;-50
2022/11/01 09:17:51;;;;;;;26.58;15.82;;;;;;;14.07;100.00;100756.50;5024641;28;20482;-48
2022/11/01 09:20:19;;;;;;;25.08;16.17;;;;;;;14.14;100.00;100754.28;5030643;28;20068;-56
2022/11/01 09:22:49;;;;;;;27.30;15.55;;;;;;;14.18;100.00;100751.31;5031309;28;20045;-49
2022/11/01 09:25:16;;;;;;;22.10;15.57;;;;;;;14.24;100.00;100744.72;5029068;28;20055;-52
2022/11/01 09:27:43;;;;;;;30.45;16.55;;;;;;;14.30;100.00;100752.19;5030291;28;20047;-53
2022/11/01 09:30:11;;;;;;;27.02;16.60;;;;;;;14.35;100.00;100754.50;5030121;28;20057;-53
2022/11/01 09:32:38;;;;;;;23.70;14.48;;;;;;;14.33;100.00;100735.25;5024041;28;20046;-50
2022/11/01 09:35:05;;;;;;;22.48;14.82;;;;;;;14.36;100.00;100740.31;5030325;28;20057;-53
2022/11/01 09:37:32;;;;;;;22.52;14.95;;;;;;;14.42;100.00;100742.53;5029022;28;20063;-53
2022/11/01 09:39:59;;;;;;;27.95;15.18;;;;;;;14.42;100.00;100766.38;5030616;28;20055;-52
2022/11/01 09:42:31;;;;;;;23.77;14.23;;;;;;;14.54;99.85;100760.19;5029953;28;20052;-51
2022/11/01 09:45:04;;;;;;;22.25;14.80;;;;;;;14.53;99.55;100771.75;5037365;28;20045;-51
2022/11/01 09:47:32;;;;;;;23.65;14.73;;;;;;;14.57;99.88;100793.56;5030135;28;20064;-49
2022/11/01 09:50:16;;;;;;;21.80;14.18;;;;;;;14.57;100.00;100796.22;5034691;28;20054;-53
2022/11/01 09:52:43;;;;;;;21.35;14.68;;;;;;;14.62;98.67;100794.06;5029848;28;20128;-54
2022/11/01 09:55:14;;;;;;;19.02;14.05;;;;;;;14.67;98.62;100787.47;5031698;28;20125;-54
2022/11/01 09:57:57;;;;;;;21.02;14.38;;;;;;;14.72;98.74;100796.88;5027806;28;20051;-55
2022/11/01 10:00:26;;;;;;;22.25;14.10;;;;;;;14.72;98.94;100796.88;5028686;28;20053;-64
2022/11/01 10:03:09;;;;;;;25.58;13.85;;;;;;;14.73;99.07;100788.00;5028806;28;20482;-64
2022/11/01 10:06:15;;;;;;;23.08;12.65;;;;;;;14.75;99.25;100792.22;5027513;28;20049;-63
2022/11/01 10:08:58;;;;;;;20.58;12.43;;;;;;;14.80;99.08;100787.41;5015445;28;20057;-64
2022/11/01 10:11:39;;;;;;;27.27;13.65;;;;;;;14.79;98.78;100796.34;5036753;28;20600;-63
2022/11/01 10:14:22;;;;;;;23.38;13.13;;;;;;;14.78;98.99;100788.50;5033988;28;20045;-64
2022/11/01 10:17:12;;;;;;;18.80;12.20;;;;;;;14.77;99.51;100785.00;5026382;28;20137;-64
2022/11/01 10:19:42;;;;;;;24.20;13.27;;;;;;;14.82;99.37;100793.47;5041229;28;20061;-63
2022/11/01 10:22:16;;;;;;;25.55;12.80;;;;;;;14.85;99.20;100797.69;5033034;28;20055;-64
2022/11/01 10:24:45;;;;;;;19.92;12.55;;;;;;;14.86;99.22;100786.09;5041209;28;20048;-64
2022/11/01 10:27:33;;;;;;;23.08;13.48;;;;;;;14.92;99.19;100788.31;5042169;28;20063;-63
2022/11/01 10:30:07;;;;;;;26.05;12.68;;;;;;;14.94;98.14;100779.28;5034031;28;20559;-63
2022/11/01 10:32:51;;;;;;;22.77;11.98;;;;;;;14.91;98.85;100792.78;5034914;28;20060;-63
2022/11/01 10:35:26;;;;;;;20.38;11.38;;;;;;;14.92;98.54;100783.03;5035314;28;20054;-64
2022/11/01 10:37:58;;;;;;;17.55;10.35;;;;;;;14.94;99.25;100786.38;5040780;28;20049;-64
2022/11/01 10:40:53;;;;;;;24.60;11.05;;;;;;;14.98;99.24;100794.97;5036648;28;20050;-64
2022/11/01 10:43:21;;;;;;;16.20;11.15;;;;;;;15.00;99.59;100801.84;5038996;28;20053;-64
2022/11/01 10:45:50;;;;;;;22.05;11.80;;;;;;;15.03;99.24;100801.59;5035324;28;20059;-63
2022/11/01 10:48:30;;;;;;;21.73;12.75;;;;;;;15.05;98.94;100807.66;5033415;28;20144;-64
2022/11/01 10:51:02;;;;;;;23.40;12.63;;;;;;;15.13;98.62;100820.31;5026619;28;20056;-63
2022/11/01 10:53:32;;;;;;;20.90;12.18;;;;;;;15.17;98.21;100816.47;5031450;28;20059;-63
2022/11/01 10:56:03;;;;;;;20.45;11.02;;;;;;;15.17;98.39;100821.78;5034220;28;20046;-63
2022/11/01 10:58:38;;;;;;;24.05;11.45;;;;;;;15.19;97.98;100820.72;5038160;28;20132;-63
2022/11/01 11:01:09;;;;;;;18.10;11.30;;;;;;;15.26;98.28;100815.78;5034999;28;20056;-63
2022/11/01 11:03:37;;;;;;;16.45;11.05;;;;;;;15.27;97.91;100803.41;5044665;28;20664;-63
2022/11/01 11:06:08;;;;;;;18.83;10.90;;;;;;;15.32;97.52;100803.91;5017921;28;20049;-62
2022/11/01 11:08:37;;;;;;;24.75;11.80;;;;;;;15.34;97.96;100809.91;5037608;28;20067;-63
2022/11/01 11:11:13;;;;;;;22.23;10.48;;;;;;;15.45;97.22;100808.16;5025787;28;20049;-63
2022/11/01 11:13:43;;;;;;;20.40;10.27;;;;;;;15.66;96.87;100815.44;5027878;28;20053;-63
2022/11/01 11:16:29;;;;;;;18.42;9.93;;;;;;;15.89;96.02;100808.34;5028808;28;20053;-65
2022/11/01 11:19:21;;;;;;;19.35;10.35;;;;;;;16.03;94.64;100796.63;5018418;28;20445;-63
2022/11/01 11:21:50;;;;;;;17.42;9.40;;;;;;;16.29;92.90;100802.53;5033685;28;20124;-63
2022/11/01 11:24:20;;;;;;;18.30;9.45;;;;;;;16.44;92.60;100803.97;5031863;28;20041;-64